Greater Kankakee Airport
KIKK : now visible

Airfield :











YOU CAN JOIN US ON...

 
LOGIN :

Register | Disclaimer

   EN    FR    IT 

 









Legend :    VFR   Marginal VFR   IFR   Intensive IFR   Very Intensive IFR
Visi :
Ceiling :
>= 8 km
>= 3000ft
5 to 8 km
1000 to 3000 ft
1500m to 5 km
500 to 1000 ft
800 to 1500m
200 to 500 ft
< 800m
< 200 ft
Symbols :   Thunderstorms  Fog  Heavy snow  Heavy precipitations  Wind > 20 kt






- Airport Elevation : 630 ft


KIKK - Greater Kankakee

CURRENT METAR :
  • 171215Z AUTO 11009KT 10SM BKN110 00/M03 A3009 RMK AO2 T10031031 PWINO

EXPIRED METARs :
  • 171155Z AUTO 11007KT 10SM SCT090 OVC110 00/M03 A3010 RMK AO2 T10051030 11003 21046 PWINO
  • 171135Z AUTO 12008KT 10SM OVC080 00/M03 A3011 RMK AO2 T10031030 PWINO
  • 171115Z AUTO 10005KT 10SM OVC090 00/M03 A3011 RMK AO2 T10031032 PWINO
  • 171050Z AUTO 11005KT 10SM OVC090 00/M03 A3010 RMK AO2 T10041035 PWINO
  • 171035Z AUTO 11006KT 10SM OVC100 M01/M03 A3010 RMK AO2 T10061035 PWINO
  • 171015Z AUTO 10005KT 10SM OVC110 M01/M03 A3009 RMK AO2 T10081032 PWINO
  • 170955Z AUTO 11006KT 10SM OVC100 M01/M03 A3009 RMK AO2 T10111035 PWINO
  • 170935Z AUTO 10006KT 10SM OVC100 M01/M03 A3009 RMK AO2 T10141035 PWINO

TAF N/A



MET'MAP, your aeronautical weather chart ! - Copyright ORBIFLY December 2007 - Disclaimer

ORBIFLY MET'MAP TEAM :

Programming & Development : Alexandra Zaïnal
Concept & original design : Baudouin d'Aumeries
Assistance for programming : Marc-Olivier Méhu
Technical & hardware support : Manuel Goepfert

Contact : metmap@orbifly.com




SOURCES & CREDITS :

   NOAA       Earth
Advisory